Time;durP1;ratioP1;P1;durP2;ratioP2;P2;SDS_P1;SDS_P2;PMS_P1;PMS_P2;Temp;Humidity;BMP_temperature;BMP_pressure;BME280_temperature;BME280_humidity;BME280_pressure;Samples;Min_cycle;Max_cycle;Signal;HPM_P1;HPM_P2
2023/06/08 00:00:50;;;;;;;0.35;0.35;;;12.40;99.90;;;;;;5030441;28;20032;-50
2023/06/08 00:03:19;;;;;;;0.20;0.20;;;12.40;99.90;;;;;;5030570;28;20032;-48
2023/06/08 00:05:48;;;;;;;0.22;0.22;;;12.40;99.90;;;;;;5030682;28;20032;-52
2023/06/08 00:08:14;;;;;;;;;;;12.30;99.90;;;;;;5030927;28;20025;-51
2023/06/08 00:10:44;;;;;;;0.20;0.20;;;12.30;99.90;;;;;;5030448;28;19905;-47
2023/06/08 00:13:10;;;;;;;0.30;0.30;;;12.30;99.90;;;;;;5029953;28;20037;-54
2023/06/08 00:15:36;;;;;;;0.30;0.30;;;12.30;99.90;;;;;;5030529;28;20407;-49
2023/06/08 00:18:02;;;;;;;0.30;0.30;;;12.30;99.90;;;;;;5030239;28;20021;-46
2023/06/08 00:20:28;;;;;;;0.28;0.28;;;12.30;99.90;;;;;;5030080;28;20093;-45
2023/06/08 00:22:56;;;;;;;0.30;0.30;;;12.30;99.90;;;;;;5030402;28;20036;-46
2023/06/08 00:25:21;;;;;;;0.20;0.20;;;12.30;99.90;;;;;;5030153;28;20443;-52
2023/06/08 00:27:47;;;;;;;0.40;0.40;;;12.30;99.90;;;;;;5030262;28;20116;-50
2023/06/08 00:30:15;;;;;;;0.20;0.20;;;12.30;99.90;;;;;;5030120;28;20380;-49
2023/06/08 00:32:41;;;;;;;0.55;0.50;;;12.30;99.90;;;;;;5030380;28;20045;-46
2023/06/08 00:35:07;;;;;;;0.20;0.20;;;12.30;99.90;;;;;;5030196;28;20404;-49
2023/06/08 00:37:35;;;;;;;0.40;0.40;;;12.30;99.90;;;;;;5030068;28;20028;-51
2023/06/08 00:40:01;;;;;;;0.20;0.20;;;12.30;99.90;;;;;;5030272;28;20040;-51
2023/06/08 00:42:27;;;;;;;0.20;0.20;;;12.30;99.90;;;;;;5029651;28;20061;-51
2023/06/08 00:44:52;;;;;;;0.15;0.15;;;12.20;99.90;;;;;;5012740;28;20064;-46
2023/06/08 00:47:18;;;;;;;0.30;0.30;;;12.20;99.90;;;;;;5030052;28;20022;-54
2023/06/08 00:49:45;;;;;;;0.20;0.20;;;12.20;99.90;;;;;;5031728;28;20040;-47
2023/06/08 00:52:10;;;;;;;0.20;0.20;;;12.20;99.90;;;;;;5033721;28;20025;-50
2023/06/08 00:54:39;;;;;;;0.43;0.40;;;12.20;99.90;;;;;;5033152;28;20559;-49
2023/06/08 00:57:06;;;;;;;0.28;0.28;;;12.20;99.90;;;;;;5033660;28;20026;-49
2023/06/08 00:59:32;;;;;;;0.50;0.30;;;12.20;99.90;;;;;;5033434;28;20465;-52
2023/06/08 01:01:58;;;;;;;0.20;0.20;;;12.20;99.90;;;;;;5033442;28;20041;-46
2023/06/08 01:04:25;;;;;;;0.20;0.20;;;12.10;99.90;;;;;;5033646;28;20021;-50
2023/06/08 01:07:14;;;;;;;0.20;0.20;;;12.10;99.90;;;;;;5033317;28;20021;-55
2023/06/08 01:10:02;;;;;;;0.37;0.37;;;12.10;99.90;;;;;;5033195;28;20025;-46
2023/06/08 01:12:45;;;;;;;0.20;0.20;;;12.10;99.90;;;;;;5033386;28;20036;-49
2023/06/08 01:15:24;;;;;;;0.20;0.20;;;12.10;99.90;;;;;;5021086;28;20041;-45
2023/06/08 01:17:53;;;;;;;0.20;0.20;;;12.00;99.90;;;;;;5032297;28;20029;-47
2023/06/08 01:20:29;;;;;;;0.30;0.30;;;12.00;99.90;;;;;;5031298;28;20423;-47
2023/06/08 01:23:11;;;;;;;0.17;0.17;;;12.00;99.90;;;;;;5032819;28;20021;-46
2023/06/08 01:25:38;;;;;;;0.30;0.30;;;12.00;99.90;;;;;;5033093;28;20075;-55
2023/06/08 01:28:12;;;;;;;0.30;0.30;;;12.00;99.90;;;;;;5033056;28;20030;-46
2023/06/08 01:30:42;;;;;;;0.47;0.47;;;12.00;99.90;;;;;;5033067;28;20025;-47
2023/06/08 01:33:09;;;;;;;;;;;12.00;99.90;;;;;;5033454;28;20036;-50
2023/06/08 01:35:35;;;;;;;0.25;0.25;;;12.00;99.90;;;;;;5032880;28;19917;-51
2023/06/08 01:38:09;;;;;;;0.35;0.35;;;12.00;99.90;;;;;;5032896;28;20036;-46
2023/06/08 01:40:37;;;;;;;0.43;0.30;;;12.10;99.90;;;;;;5019856;28;20067;-47
2023/06/08 01:43:08;;;;;;;1.20;1.05;;;12.00;99.90;;;;;;5032623;28;20091;-52
2023/06/08 01:45:39;;;;;;;0.38;0.38;;;12.00;99.90;;;;;;5018717;28;20113;-51
2023/06/08 01:48:06;;;;;;;0.20;0.20;;;11.90;99.90;;;;;;5032455;28;20030;-49
2023/06/08 01:50:34;;;;;;;0.95;0.70;;;12.00;99.90;;;;;;5032412;28;20510;-52
2023/06/08 01:53:00;;;;;;;0.20;0.20;;;12.00;99.90;;;;;;5032467;28;20025;-47
2023/06/08 01:55:27;;;;;;;0.57;0.57;;;11.90;99.90;;;;;;5032035;28;20045;-47
2023/06/08 01:57:53;;;;;;;0.65;0.65;;;12.00;99.90;;;;;;5032742;28;20060;-53
2023/06/08 02:00:20;;;;;;;0.25;0.25;;;12.00;99.90;;;;;;5032230;28;20068;-52
2023/06/08 02:02:46;;;;;;;0.20;0.20;;;11.90;99.90;;;;;;5032323;28;20032;-50
2023/06/08 02:05:14;;;;;;;0.20;0.20;;;12.00;99.90;;;;;;5032327;28;20026;-49
2023/06/08 02:07:40;;;;;;;0.20;0.20;;;12.00;99.90;;;;;;5031918;28;20021;-48
2023/06/08 02:10:08;;;;;;;0.40;0.40;;;12.00;99.90;;;;;;5032464;28;20108;-46
2023/06/08 02:12:33;;;;;;;0.30;0.30;;;12.00;99.90;;;;;;5031808;28;20061;-48
2023/06/08 02:14:59;;;;;;;0.40;0.40;;;12.00;99.90;;;;;;5031927;28;20073;-52
2023/06/08 02:17:27;;;;;;;0.20;0.20;;;12.00;99.90;;;;;;5031852;28;20021;-56
2023/06/08 02:19:56;;;;;;;0.30;0.30;;;12.00;99.90;;;;;;5031948;28;20068;-52
2023/06/08 02:22:23;;;;;;;0.38;0.38;;;12.00;99.90;;;;;;5031872;28;20017;-49
2023/06/08 02:24:49;;;;;;;0.47;0.43;;;12.00;99.90;;;;;;5031915;28;20029;-55
2023/06/08 02:27:15;;;;;;;0.22;0.22;;;12.00;99.90;;;;;;5032044;28;20022;-50
2023/06/08 02:29:41;;;;;;;0.20;0.20;;;12.00;99.90;;;;;;5031867;28;20018;-52
2023/06/08 02:32:07;;;;;;;0.20;0.20;;;12.10;99.90;;;;;;5031770;28;20040;-47
2023/06/08 02:34:33;;;;;;;0.30;0.20;;;12.10;99.90;;;;;;5031539;28;20513;-53
2023/06/08 02:36:58;;;;;;;0.60;0.60;;;12.10;99.90;;;;;;5031635;28;20025;-51
2023/06/08 02:39:24;;;;;;;0.17;0.17;;;12.10;99.90;;;;;;5031579;28;20037;-50
2023/06/08 02:41:50;;;;;;;0.20;0.20;;;12.00;99.90;;;;;;5031727;28;20105;-54
2023/06/08 02:44:15;;;;;;;0.40;0.35;;;12.20;99.90;;;;;;5031195;28;20029;-54
2023/06/08 02:46:42;;;;;;;0.20;0.20;;;12.20;99.90;;;;;;5031453;28;20017;-52
2023/06/08 02:49:08;;;;;;;0.50;0.50;;;12.20;99.90;;;;;;5031545;28;20040;-49
2023/06/08 02:51:35;;;;;;;0.20;0.20;;;12.30;99.90;;;;;;5013449;28;20026;-47
2023/06/08 02:54:00;;;;;;;0.20;0.20;;;12.30;99.90;;;;;;5031464;28;20041;-47
2023/06/08 02:56:26;;;;;;;0.20;0.20;;;12.30;99.90;;;;;;5031367;28;20025;-47
2023/06/08 02:58:52;;;;;;;0.43;0.30;;;12.30;99.90;;;;;;5031414;28;20072;-46
2023/06/08 03:01:18;;;;;;;0.30;0.30;;;12.30;99.90;;;;;;5031276;28;20503;-47
2023/06/08 03:03:45;;;;;;;0.30;0.30;;;12.30;99.90;;;;;;5031138;28;20079;-47
2023/06/08 03:06:12;;;;;;;0.45;0.40;;;12.30;99.90;;;;;;5030847;28;20018;-51
2023/06/08 03:08:41;;;;;;;0.20;0.20;;;12.30;99.90;;;;;;5031126;28;20029;-49
2023/06/08 03:11:07;;;;;;;0.32;0.32;;;12.20;99.90;;;;;;5031213;28;20029;-52
2023/06/08 03:13:33;;;;;;;0.20;0.20;;;12.30;99.90;;;;;;5030461;28;20505;-48
2023/06/08 03:15:59;;;;;;;0.30;0.30;;;12.30;99.90;;;;;;5030817;28;20065;-47
2023/06/08 03:18:25;;;;;;;0.30;0.30;;;12.40;99.90;;;;;;5031085;28;20057;-48
2023/06/08 03:20:53;;;;;;;0.45;0.30;;;12.30;99.90;;;;;;5030854;28;20025;-48
2023/06/08 03:23:22;;;;;;;1.40;1.27;;;12.30;99.90;;;;;;5031165;28;20033;-50
2023/06/08 03:25:48;;;;;;;0.20;0.20;;;12.30;99.90;;;;;;5030664;28;20465;-53
2023/06/08 03:28:18;;;;;;;0.40;0.40;;;12.30;99.90;;;;;;5030783;28;20171;-52
2023/06/08 03:30:43;;;;;;;0.20;0.20;;;12.30;99.90;;;;;;5030789;28;20472;-50
2023/06/08 03:33:10;;;;;;;0.47;0.47;;;12.30;99.90;;;;;;5030486;28;20028;-53
2023/06/08 03:35:36;;;;;;;0.20;0.20;;;12.30;99.90;;;;;;5030415;28;20124;-51
2023/06/08 03:38:02;;;;;;;0.20;0.20;;;12.20;99.90;;;;;;5030484;28;20022;-54
2023/06/08 03:40:27;;;;;;;0.30;0.30;;;12.20;99.90;;;;;;5030881;28;20105;-47
2023/06/08 03:42:53;;;;;;;0.30;0.30;;;12.30;99.90;;;;;;5030374;28;20022;-52
2023/06/08 03:45:19;;;;;;;0.52;0.52;;;12.30;99.90;;;;;;5030584;28;20039;-50
2023/06/08 03:47:45;;;;;;;0.30;0.30;;;12.30;99.90;;;;;;5030634;28;20036;-56
2023/06/08 03:50:14;;;;;;;0.40;0.40;;;12.30;99.90;;;;;;5030372;28;20443;-51
2023/06/08 03:52:40;;;;;;;0.57;0.50;;;12.40;99.90;;;;;;5030682;28;20026;-50
2023/06/08 03:55:11;;;;;;;0.30;0.30;;;12.30;99.90;;;;;;5030173;28;20140;-46
2023/06/08 03:57:37;;;;;;;0.20;0.20;;;12.40;99.90;;;;;;5030568;28;20026;-51
2023/06/08 04:00:07;;;;;;;0.20;0.20;;;12.40;99.90;;;;;;5030377;28;20377;-47
2023/06/08 04:02:32;;;;;;;0.35;0.35;;;12.30;99.90;;;;;;5030392;28;20029;-52
2023/06/08 04:04:59;;;;;;;0.30;0.30;;;12.40;99.90;;;;;;5030431;28;20342;-47
2023/06/08 04:07:26;;;;;;;0.70;0.52;;;12.30;99.90;;;;;;5030552;28;20049;-53
2023/06/08 04:09:52;;;;;;;1.38;0.82;;;12.40;99.90;;;;;;5030316;28;20374;-57
2023/06/08 04:12:17;;;;;;;0.40;0.40;;;12.40;99.90;;;;;;5030237;28;20024;-50
2023/06/08 04:14:43;;;;;;;0.20;0.20;;;12.40;99.90;;;;;;5030229;28;20033;-48
2023/06/08 04:17:09;;;;;;;0.50;0.40;;;12.40;99.90;;;;;;5030108;28;20064;-48
2023/06/08 04:19:34;;;;;;;0.20;0.20;;;12.40;99.90;;;;;;5030309;28;20025;-56
2023/06/08 04:22:00;;;;;;;0.30;0.30;;;12.40;99.90;;;;;;5030197;28;20033;-53
2023/06/08 04:24:28;;;;;;;0.20;0.20;;;12.40;99.90;;;;;;5033269;28;20048;-49
2023/06/08 04:26:55;;;;;;;0.40;0.40;;;12.40;99.90;;;;;;5033934;28;20021;-50
2023/06/08 04:29:21;;;;;;;0.30;0.30;;;12.50;99.90;;;;;;5033937;28;20037;-51
2023/06/08 04:31:46;;;;;;;0.40;0.40;;;12.50;99.90;;;;;;5033843;28;20495;-47
2023/06/08 04:34:12;;;;;;;0.28;0.28;;;12.50;99.90;;;;;;5033807;28;20416;-50
2023/06/08 04:36:42;;;;;;;0.50;0.50;;;12.50;99.90;;;;;;5033746;28;20033;-47
2023/06/08 04:39:08;;;;;;;0.20;0.20;;;12.50;99.90;;;;;;5033721;28;20034;-53
2023/06/08 04:41:34;;;;;;;0.45;0.40;;;12.60;99.90;;;;;;5033747;28;20056;-51
2023/06/08 04:44:01;;;;;;;0.43;0.32;;;12.60;99.90;;;;;;5033495;28;20029;-52
2023/06/08 04:46:30;;;;;;;0.20;0.20;;;12.60;99.90;;;;;;5033341;28;20095;-53
2023/06/08 04:48:56;;;;;;;0.30;0.30;;;12.60;99.90;;;;;;5033945;28;20025;-47
2023/06/08 04:51:29;;;;;;;0.30;0.30;;;12.70;99.90;;;;;;5033696;28;20519;-46
2023/06/08 04:53:56;;;;;;;0.30;0.30;;;12.80;99.90;;;;;;5015820;28;20037;-48
2023/06/08 04:56:23;;;;;;;0.43;0.43;;;12.90;99.90;;;;;;5033826;28;20045;-48
2023/06/08 04:58:50;;;;;;;0.20;0.20;;;12.90;99.90;;;;;;5033455;28;20025;-54
2023/06/08 05:01:16;;;;;;;0.38;0.30;;;13.00;99.90;;;;;;5033922;28;20032;-47
2023/06/08 05:03:43;;;;;;;0.20;0.20;;;13.00;99.90;;;;;;5033537;28;20045;-48
2023/06/08 05:06:08;;;;;;;0.20;0.20;;;13.10;99.90;;;;;;5033710;28;20536;-46
2023/06/08 05:08:34;;;;;;;0.40;0.40;;;13.20;99.90;;;;;;5033339;28;20125;-50
2023/06/08 05:11:00;;;;;;;0.25;0.25;;;13.20;99.90;;;;;;5033470;28;20028;-50
2023/06/08 05:13:25;;;;;;;0.20;0.20;;;13.30;99.90;;;;;;5033095;28;20033;-53
2023/06/08 05:15:51;;;;;;;0.32;0.32;;;13.40;99.90;;;;;;5033075;28;20056;-50
2023/06/08 05:18:17;;;;;;;0.10;0.10;;;13.50;99.90;;;;;;5033317;28;20040;-49
2023/06/08 05:20:42;;;;;;;0.10;0.10;;;13.60;99.90;;;;;;5032898;28;20342;-50
2023/06/08 05:23:08;;;;;;;0.30;0.30;;;13.60;99.90;;;;;;5026963;28;20084;-47
2023/06/08 05:25:36;;;;;;;0.30;0.22;;;13.70;99.90;;;;;;5018050;28;20028;-46
2023/06/08 05:28:03;;;;;;;0.10;0.10;;;13.80;99.90;;;;;;5031966;28;20092;-52
2023/06/08 05:30:29;;;;;;;0.20;0.20;;;13.80;99.90;;;;;;5032433;28;20488;-48
2023/06/08 05:32:55;;;;;;;0.30;0.30;;;13.90;99.90;;;;;;5025958;28;20037;-51
2023/06/08 05:35:21;;;;;;;0.30;0.30;;;14.00;99.90;;;;;;5022244;28;20554;-48
2023/06/08 05:37:46;;;;;;;0.75;0.50;;;14.10;99.90;;;;;;5025683;28;20033;-50
2023/06/08 05:40:12;;;;;;;0.45;0.45;;;14.30;99.90;;;;;;5032073;28;20069;-49
2023/06/08 05:42:38;;;;;;;0.10;0.10;;;14.40;99.90;;;;;;5031772;28;20109;-47
2023/06/08 05:45:04;;;;;;;0.20;0.20;;;14.60;99.90;;;;;;5031274;28;20032;-46
2023/06/08 05:47:30;;;;;;;0.20;0.20;;;14.80;99.90;;;;;;5032093;28;20472;-48
2023/06/08 05:49:56;;;;;;;0.73;0.73;;;14.90;99.90;;;;;;5031091;28;20028;-47
2023/06/08 05:52:21;;;;;;;0.20;0.20;;;15.10;99.90;;;;;;5031673;28;20025;-52
2023/06/08 05:54:47;;;;;;;0.30;0.30;;;15.40;99.90;;;;;;5030691;28;20089;-50
2023/06/08 05:57:12;;;;;;;0.38;0.38;;;15.90;99.90;;;;;;5031806;28;20021;-50
2023/06/08 05:59:38;;;;;;;0.77;0.40;;;16.30;99.90;;;;;;5031819;28;20400;-51
2023/06/08 06:02:04;;;;;;;0.30;0.30;;;16.90;99.90;;;;;;5030888;28;20026;-51
2023/06/08 06:04:30;;;;;;;0.70;0.52;;;17.50;99.90;;;;;;5031817;28;20044;-53
2023/06/08 06:06:55;;;;;;;0.40;0.40;;;18.00;99.90;;;;;;5012948;28;20018;-51
2023/06/08 06:09:21;;;;;;;0.10;0.10;;;18.40;99.90;;;;;;5031565;28;20037;-51
2023/06/08 06:11:47;;;;;;;0.40;0.30;;;18.90;99.90;;;;;;5030362;28;20223;-52
2023/06/08 06:14:13;;;;;;;0.43;0.28;;;19.20;99.90;;;;;;5031420;28;20111;-48
2023/06/08 06:16:39;;;;;;;0.20;0.20;;;19.50;99.90;;;;;;5031628;28;20040;-50
2023/06/08 06:19:04;;;;;;;0.45;0.32;;;19.90;99.90;;;;;;5030681;28;20469;-51
2023/06/08 06:21:30;;;;;;;1.13;1.08;;;20.00;99.90;;;;;;5031468;28;20084;-50
2023/06/08 06:23:56;;;;;;;0.47;0.47;;;20.40;99.90;;;;;;5030350;28;20030;-51
2023/06/08 06:26:21;;;;;;;0.77;0.43;;;20.70;99.90;;;;;;5031959;28;20033;-58
2023/06/08 06:28:47;;;;;;;0.20;0.20;;;21.20;99.90;;;;;;5032247;28;20072;-50
2023/06/08 06:31:12;;;;;;;0.20;0.20;;;21.50;99.90;;;;;;5031966;28;20036;-50
2023/06/08 06:33:38;;;;;;;0.30;0.30;;;21.80;99.90;;;;;;5031914;28;20519;-52
2023/06/08 06:36:05;;;;;;;1.23;1.13;;;22.00;99.90;;;;;;5031801;28;20030;-54
2023/06/08 06:38:31;;;;;;;0.40;0.30;;;22.00;98.30;;;;;;5031702;28;20113;-54
2023/06/08 06:40:56;;;;;;;0.30;0.30;;;22.10;98.10;;;;;;5031670;28;20116;-52
2023/06/08 06:43:23;;;;;;;1.75;0.90;;;22.40;98.50;;;;;;5031171;28;20092;-49
2023/06/08 06:45:50;;;;;;;0.40;0.40;;;22.40;96.50;;;;;;5031730;28;20692;-52
2023/06/08 06:48:25;;;;;;;0.85;0.43;;;22.50;97.30;;;;;;5030719;28;20026;-53
2023/06/08 06:50:51;;;;;;;0.40;0.40;;;22.80;96.70;;;;;;5031709;28;20047;-48
2023/06/08 06:53:16;;;;;;;0.68;0.52;;;22.70;94.80;;;;;;5031417;28;20033;-49
2023/06/08 06:55:42;;;;;;;0.57;0.45;;;22.80;95.20;;;;;;5031166;28;20050;-47
2023/06/08 06:58:08;;;;;;;0.68;0.68;;;23.00;96.20;;;;;;5031579;28;20025;-51
2023/06/08 07:00:37;;;;;;;0.50;0.40;;;23.30;94.90;;;;;;5031397;28;20018;-53
2023/06/08 07:03:07;;;;;;;;;;;23.40;93.40;;;;;;5031783;28;20026;-50
2023/06/08 07:05:33;;;;;;;0.40;0.28;;;23.60;93.60;;;;;;5031247;28;19905;-53
2023/06/08 07:07:59;;;;;;;0.35;0.35;;;23.70;92.80;;;;;;5031202;28;20029;-52
2023/06/08 07:10:25;;;;;;;0.43;0.32;;;23.70;91.50;;;;;;5031005;28;20376;-53
2023/06/08 07:12:50;;;;;;;0.80;0.63;;;23.70;92.00;;;;;;5030861;28;20029;-49
2023/06/08 07:15:17;;;;;;;1.20;0.68;;;24.20;94.00;;;;;;5030243;28;20038;-48
2023/06/08 07:17:44;;;;;;;0.25;0.20;;;24.60;90.80;;;;;;5030606;28;20732;-51
2023/06/08 07:20:10;;;;;;;0.60;0.60;;;25.00;91.80;;;;;;5030403;28;20120;-53
2023/06/08 07:22:36;;;;;;;0.43;0.38;;;25.20;90.40;;;;;;5029722;28;20044;-52
2023/06/08 07:25:04;;;;;;;0.32;0.32;;;25.40;89.70;;;;;;5030631;28;20021;-51
2023/06/08 07:27:29;;;;;;;0.97;0.70;;;25.60;86.00;;;;;;5030355;28;20022;-54
2023/06/08 07:29:55;;;;;;;0.85;0.57;;;25.60;81.30;;;;;;5030836;28;20055;-50
2023/06/08 07:32:21;;;;;;;0.40;0.40;;;25.70;85.90;;;;;;5030892;28;20068;-52
2023/06/08 07:34:47;;;;;;;0.30;0.30;;;25.80;85.20;;;;;;5030585;28;20061;-51
2023/06/08 07:37:13;;;;;;;2.03;0.93;;;25.50;83.70;;;;;;5030802;28;20026;-51
2023/06/08 07:39:39;;;;;;;0.52;0.50;;;25.50;85.30;;;;;;5030767;28;20098;-48
2023/06/08 07:42:05;;;;;;;0.80;0.55;;;25.80;84.90;;;;;;5030825;28;20025;-53
2023/06/08 07:44:31;;;;;;;0.40;0.40;;;25.90;83.40;;;;;;5030508;28;20034;-52
2023/06/08 07:46:57;;;;;;;0.30;0.30;;;25.90;80.10;;;;;;5030716;28;20029;-50
2023/06/08 07:49:23;;;;;;;0.38;0.38;;;25.90;79.40;;;;;;5029923;28;20068;-55
2023/06/08 07:51:49;;;;;;;0.50;0.32;;;26.10;83.20;;;;;;5028279;28;20025;-53
2023/06/08 07:54:19;;;;;;;0.73;0.52;;;26.20;83.20;;;;;;5010683;28;20041;-52
2023/06/08 07:56:48;;;;;;;1.00;0.63;;;26.50;84.90;;;;;;5026035;28;20021;-52
2023/06/08 07:59:13;;;;;;;0.35;0.35;;;26.60;81.40;;;;;;5033593;28;20018;-53
2023/06/08 08:01:39;;;;;;;0.20;0.20;;;26.50;79.20;;;;;;5032782;28;20037;-48
2023/06/08 08:04:05;;;;;;;1.08;0.30;;;26.70;81.50;;;;;;5034769;28;20021;-52
2023/06/08 08:06:30;;;;;;;1.25;0.68;;;26.80;79.40;;;;;;5028878;28;20057;-53
2023/06/08 08:08:56;;;;;;;0.73;0.50;;;27.10;79.20;;;;;;5026181;28;20088;-54
2023/06/08 08:11:21;;;;;;;0.30;0.30;;;27.20;76.20;;;;;;5021626;28;20477;-54
2023/06/08 08:13:47;;;;;;;0.55;0.45;;;27.00;73.90;;;;;;5031474;28;20037;-49
2023/06/08 08:16:13;;;;;;;0.50;0.40;;;26.50;73.50;;;;;;5032593;28;20171;-56
2023/06/08 08:18:40;;;;;;;0.47;0.35;;;26.60;77.80;;;;;;5030751;28;20037;-54
2023/06/08 08:21:06;;;;;;;0.57;0.47;;;26.90;77.00;;;;;;5030145;28;20468;-55
2023/06/08 08:23:31;;;;;;;0.63;0.43;;;27.10;75.80;;;;;;5024427;28;20067;-53
2023/06/08 08:25:57;;;;;;;0.57;0.45;;;27.30;73.70;;;;;;5028927;28;20132;-55
2023/06/08 08:28:23;;;;;;;1.05;0.57;;;27.40;75.80;;;;;;5036668;28;20022;-48
2023/06/08 08:30:50;;;;;;;0.30;0.30;;;27.40;74.00;;;;;;5036759;28;20112;-47
2023/06/08 08:33:15;;;;;;;0.30;0.30;;;27.30;73.10;;;;;;5036656;28;20494;-47
2023/06/08 08:35:41;;;;;;;0.40;0.40;;;27.40;72.70;;;;;;5036752;28;20071;-55
2023/06/08 08:38:06;;;;;;;0.55;0.50;;;27.00;71.40;;;;;;5035960;28;20086;-53
2023/06/08 08:40:32;;;;;;;0.25;0.22;;;26.50;70.90;;;;;;5032105;28;20033;-50
2023/06/08 08:43:22;;;;;;;0.50;0.40;;;26.20;70.60;;;;;;5027012;28;20030;-50
2023/06/08 08:45:50;;;;;;;1.45;0.73;;;26.00;76.60;;;;;;5030934;28;20108;-47
2023/06/08 08:48:19;;;;;;;0.73;0.65;;;26.30;73.90;;;;;;5032670;28;20031;-50
2023/06/08 08:50:53;;;;;;;0.30;0.30;;;26.40;80.10;;;;;;5036819;28;20017;-48
2023/06/08 08:53:27;;;;;;;0.65;0.50;;;26.50;73.20;;;;;;5036358;28;20484;-48
2023/06/08 08:55:54;;;;;;;0.45;0.40;;;26.80;76.40;;;;;;5036361;28;20094;-53
2023/06/08 08:58:21;;;;;;;0.20;0.20;;;27.20;74.20;;;;;;5027068;28;20518;-56
2023/06/08 09:00:48;;;;;;;0.30;0.30;;;27.30;72.50;;;;;;5031312;28;20025;-48
2023/06/08 09:03:15;;;;;;;0.40;0.40;;;27.60;72.80;;;;;;5023684;28;20500;-47
2023/06/08 09:05:43;;;;;;;0.43;0.43;;;27.90;72.70;;;;;;5028645;28;20029;-50
2023/06/08 09:08:09;;;;;;;0.32;0.32;;;28.10;74.70;;;;;;5024332;28;20152;-56
2023/06/08 09:10:35;;;;;;;0.22;0.22;;;28.20;71.10;;;;;;5033119;28;20029;-47
2023/06/08 09:13:01;;;;;;;0.77;0.60;;;28.00;68.50;;;;;;5032700;28;20391;-48
2023/06/08 09:15:27;;;;;;;0.47;0.47;;;27.70;67.00;;;;;;5025573;28;20038;-47
2023/06/08 09:17:57;;;;;;;0.40;0.40;;;27.20;69.20;;;;;;5028966;28;20375;-49
2023/06/08 09:20:28;;;;;;;0.47;0.35;;;27.40;71.90;;;;;;5026572;28;20108;-54
2023/06/08 09:22:53;;;;;;;0.68;0.47;;;27.40;71.70;;;;;;5030356;28;20108;-53
2023/06/08 09:25:38;;;;;;;0.30;0.30;;;27.10;68.50;;;;;;5018528;28;20112;-47
2023/06/08 09:28:15;;;;;;;0.70;0.40;;;26.70;69.50;;;;;;5031380;28;20514;-53
2023/06/08 09:30:49;;;;;;;0.50;0.40;;;26.30;69.70;;;;;;5033334;28;20029;-50
2023/06/08 09:33:17;;;;;;;0.38;0.38;;;26.10;69.60;;;;;;5032477;28;20014;-51
2023/06/08 09:35:43;;;;;;;0.40;0.40;;;26.50;73.80;;;;;;5032353;28;20131;-54
2023/06/08 09:38:18;;;;;;;0.70;0.40;;;27.00;76.90;;;;;;5031288;28;20109;-53
2023/06/08 09:40:45;;;;;;;0.30;0.30;;;27.50;71.80;;;;;;5032500;28;20112;-51
2023/06/08 09:43:10;;;;;;;0.40;0.40;;;27.80;72.30;;;;;;5031343;28;20014;-56
2023/06/08 09:45:44;;;;;;;0.40;0.40;;;28.20;71.80;;;;;;5032339;28;20036;-49
2023/06/08 09:48:11;;;;;;;0.82;0.55;;;28.30;70.30;;;;;;5031441;28;20079;-47
2023/06/08 09:50:36;;;;;;;0.28;0.28;;;28.20;68.70;;;;;;5032047;28;20030;-46
2023/06/08 09:53:05;;;;;;;0.40;0.40;;;28.30;68.60;;;;;;5013918;28;20136;-47
2023/06/08 09:55:31;;;;;;;;;;;28.40;69.70;;;;;;5019149;28;20160;-50
2023/06/08 09:57:57;;;;;;;0.88;0.47;;;28.30;68.80;;;;;;5031978;28;20007;-52
2023/06/08 10:00:25;;;;;;;1.00;0.70;;;28.50;68.40;;;;;;5031186;28;20041;-47
2023/06/08 10:03:09;;;;;;;0.50;0.50;;;28.50;66.70;;;;;;5032003;28;20036;-52
2023/06/08 10:05:38;;;;;;;0.22;0.22;;;28.40;68.70;;;;;;5030180;28;20053;-53
2023/06/08 10:08:07;;;;;;;0.20;0.20;;;28.70;67.00;;;;;;5022169;28;20021;-51
2023/06/08 10:10:36;;;;;;;;;;;28.20;68.10;;;;;;5015465;28;20021;-55
2023/06/08 10:13:03;;;;;;;0.50;0.50;;;28.20;70.10;;;;;;5020374;28;19909;-50
2023/06/08 10:15:29;;;;;;;0.40;0.40;;;28.30;67.60;;;;;;5017993;28;20121;-48
2023/06/08 10:17:56;;;;;;;0.40;0.40;;;28.50;68.20;;;;;;5013863;28;20041;-48
2023/06/08 10:20:21;;;;;;;0.28;0.25;;;28.90;70.30;;;;;;5014471;28;20022;-51
2023/06/08 10:22:47;;;;;;;0.38;0.38;;;28.40;66.40;;;;;;5013733;28;20436;-46
2023/06/08 10:25:16;;;;;;;0.38;0.35;;;28.40;64.90;;;;;;5013710;28;20060;-51
2023/06/08 10:27:54;;;;;;;0.30;0.30;;;27.70;66.00;;;;;;5028384;28;20025;-49
2023/06/08 10:30:29;;;;;;;0.38;0.35;;;27.50;67.10;;;;;;5032064;28;20390;-48
2023/06/08 10:33:07;;;;;;;0.85;0.70;;;27.60;71.10;;;;;;5031797;28;20113;-48
2023/06/08 10:35:32;;;;;;;0.30;0.30;;;28.10;73.10;;;;;;5031933;28;20144;-54
2023/06/08 10:38:08;;;;;;;0.40;0.32;;;28.40;71.30;;;;;;5031631;28;20390;-55
2023/06/08 10:40:49;;;;;;;0.50;0.50;;;28.70;68.70;;;;;;5031692;28;20053;-51
2023/06/08 10:43:15;;;;;;;0.45;0.40;;;28.70;65.40;;;;;;5031382;28;20052;-50
2023/06/08 10:45:45;;;;;;;0.45;0.40;;;28.60;67.50;;;;;;5031025;28;20144;-48
2023/06/08 10:48:16;;;;;;;0.60;0.57;;;28.50;66.00;;;;;;5031640;28;20029;-51
2023/06/08 10:50:42;;;;;;;1.75;0.60;;;28.30;65.90;;;;;;5031421;28;20096;-63
2023/06/08 10:53:08;;;;;;;0.40;0.40;;;28.60;69.10;;;;;;5031571;28;20152;-57
2023/06/08 10:55:35;;;;;;;0.45;0.30;;;28.80;70.20;;;;;;5031064;28;20124;-56
2023/06/08 10:58:06;;;;;;;0.32;0.32;;;28.90;67.80;;;;;;5025476;28;20032;-57
2023/06/08 11:00:33;;;;;;;0.40;0.40;;;28.30;67.60;;;;;;5000914;28;20018;-60
2023/06/08 11:02:58;;;;;;;0.40;0.40;;;28.30;68.60;;;;;;5026185;28;20073;-60
2023/06/08 11:05:24;;;;;;;0.43;0.43;;;28.40;69.40;;;;;;5026889;28;20049;-59
2023/06/08 11:07:52;;;;;;;0.45;0.30;;;28.40;69.40;;;;;;5024457;28;20037;-57
2023/06/08 11:10:20;;;;;;;0.22;0.22;;;28.60;69.90;;;;;;5013570;28;20072;-59
2023/06/08 11:12:45;;;;;;;0.50;0.40;;;28.40;66.50;;;;;;5023794;28;20025;-60
2023/06/08 11:15:11;;;;;;;0.52;0.52;;;28.60;68.40;;;;;;5018517;28;20030;-62
2023/06/08 11:17:44;;;;;;;0.52;0.38;;;28.30;68.00;;;;;;5020489;28;20044;-60
2023/06/08 11:20:13;;;;;;;0.30;0.30;;;28.50;70.30;;;;;;5030461;28;20124;-52
2023/06/08 11:22:39;;;;;;;0.40;0.40;;;28.10;66.20;;;;;;5029390;28;20716;-54
2023/06/08 11:25:08;;;;;;;0.40;0.40;;;28.20;65.10;;;;;;5027978;28;20045;-60
2023/06/08 11:27:43;;;;;;;0.82;0.50;;;27.80;66.60;;;;;;5027644;28;20112;-57
2023/06/08 11:30:15;;;;;;;0.50;0.50;;;27.50;66.20;;;;;;5030994;28;20037;-57
2023/06/08 11:32:45;;;;;;;1.02;0.50;;;27.20;68.70;;;;;;5029802;28;20100;-57
2023/06/08 11:35:11;;;;;;;0.20;0.20;;;27.20;69.10;;;;;;5030728;28;20124;-55
2023/06/08 11:37:39;;;;;;;1.48;0.90;;;27.30;66.90;;;;;;5030683;28;20021;-57
2023/06/08 11:40:12;;;;;;;0.63;0.43;;;27.50;68.30;;;;;;5030430;28;20034;-56
2023/06/08 11:42:42;;;;;;;0.30;0.30;;;27.50;70.10;;;;;;5030492;28;20092;-56
2023/06/08 11:45:09;;;;;;;0.38;0.38;;;27.70;69.00;;;;;;5030399;28;20026;-58
2023/06/08 11:47:36;;;;;;;0.60;0.50;;;27.90;67.90;;;;;;5030739;28;20121;-56
2023/06/08 11:50:03;;;;;;;0.50;0.47;;;28.10;66.40;;;;;;5030379;28;20034;-55
2023/06/08 11:52:33;;;;;;;1.65;0.43;;;28.00;67.00;;;;;;5012166;28;20116;-56
2023/06/08 11:55:03;;;;;;;0.90;0.77;;;27.70;65.40;;;;;;5028042;28;20099;-53
2023/06/08 11:57:46;;;;;;;0.50;0.45;;;27.10;65.80;;;;;;5010835;28;20133;-56
2023/06/08 12:00:18;;;;;;;0.30;0.30;;;27.10;68.70;;;;;;5010998;28;20049;-50
2023/06/08 12:02:47;;;;;;;0.38;0.30;;;27.10;67.60;;;;;;5010847;28;20105;-55
2023/06/08 12:05:14;;;;;;;;;;;26.90;68.70;;;;;;5011118;28;20030;-51
2023/06/08 12:07:39;;;;;;;0.57;0.43;;;26.20;67.50;;;;;;5010927;28;19948;-54
2023/06/08 12:10:06;;;;;;;0.32;0.32;;;25.90;69.20;;;;;;5010705;28;20054;-49
2023/06/08 12:12:32;;;;;;;0.60;0.50;;;26.00;68.50;;;;;;5013114;28;20022;-49
2023/06/08 12:14:57;;;;;;;0.30;0.30;;;26.00;69.80;;;;;;5028190;28;20042;-49
2023/06/08 12:17:27;;;;;;;0.47;0.40;;;26.20;69.90;;;;;;5025162;28;20380;-54
2023/06/08 12:19:54;;;;;;;0.20;0.20;;;26.50;70.00;;;;;;5023689;28;20110;-55
2023/06/08 12:22:19;;;;;;;1.63;0.88;;;26.40;69.40;;;;;;5022418;28;20024;-51
2023/06/08 12:24:46;;;;;;;0.35;0.35;;;26.20;67.90;;;;;;5029199;28;20037;-57
2023/06/08 12:27:12;;;;;;;0.35;0.35;;;26.40;69.50;;;;;;5030219;28;20030;-56
2023/06/08 12:29:38;;;;;;;0.30;0.30;;;26.20;68.20;;;;;;5028768;28;20029;-52
2023/06/08 12:32:05;;;;;;;0.32;0.32;;;26.20;68.60;;;;;;5012625;28;20030;-55
2023/06/08 12:34:33;;;;;;;0.30;0.30;;;26.10;67.70;;;;;;5013651;28;20034;-55
2023/06/08 12:36:59;;;;;;;0.50;0.40;;;25.80;70.20;;;;;;5012503;28;20021;-61
2023/06/08 12:39:25;;;;;;;0.75;0.68;;;25.90;71.30;;;;;;5022016;28;20038;-60
2023/06/08 12:41:51;;;;;;;0.40;0.40;;;25.80;70.20;;;;;;4998260;28;20026;-59
2023/06/08 12:44:17;;;;;;;0.40;0.30;;;25.40;70.80;;;;;;5018909;28;20389;-63
2023/06/08 12:46:43;;;;;;;0.85;0.70;;;25.10;69.70;;;;;;5019066;28;20112;-60
2023/06/08 12:49:09;;;;;;;0.28;0.28;;;25.00;72.00;;;;;;5016820;28;20501;-60